Aviation Digital Data Service (ADDS)

Output produced by METARs form (0452 UTC 19 February 2019)
found at http://www.aviationweather.gov/metar/data/
 
METAR text: RJOW 190411Z 15012KT 7000 -SHRA FEW001 SCT008 BKN020 13/12 Q1009 RMK 1ST001 3ST008 5CU020 A2982 P/FR
Conditions at: RJOW (IWAMI , JP) observed 0411 UTC 19 February 2019
Temperature: 13.0°C (55°F)
Dewpoint: 12.0°C (54°F) [RH = 94%]
Pressure (altimeter): 29.79 inches Hg (1009.0 mb)
Winds: from the SSE (150 degrees) at 14 MPH (12 knots; 6.2 m/s)
Visibility: 4 miles ( 7 km)
Ceiling: 2000 feet AGL
Clouds: few clouds at 100 feet AGL
scattered clouds at 800 feet AGL
broken clouds at 2000 feet AGL
Weather: -SHRA  (light rain showers)

METAR text: RJOW 190400Z 16004KT 1500 R11/P2000N SHRA BCFG BR FEW001 SCT004 BKN020 12/12 Q1010
Conditions at: RJOW (IWAMI , JP) observed 0400 UTC 19 February 2019
Temperature: 12.0°C (54°F)
Dewpoint: 12.0°C (54°F) [RH = 100%]
Pressure (altimeter): 29.82 inches Hg (1010.0 mb)
Winds: from the SSE (160 degrees) at 5 MPH (4 knots; 2.1 m/s)
Visibility: 0.93 miles (1.50 km)
Ceiling: 2000 feet AGL
Clouds: few clouds at 100 feet AGL
scattered clouds at 400 feet AGL
broken clouds at 2000 feet AGL
Weather: SHRA BCFG BR  (rain showers, patches of fog, mist)

METAR text: RJOW 190335Z 33003KT 290V010 2500 R11/2000N SHRA BR FEW001 SCT006 BKN020 12/12 Q1011 RMK 2ST001 3ST006 5CU020 A2987
Conditions at: RJOW (IWAMI , JP) observed 0335 UTC 19 February 2019
Temperature: 12.0°C (54°F)
Dewpoint: 12.0°C (54°F) [RH = 100%]
Pressure (altimeter): 29.85 inches Hg (1011.0 mb)
Winds: from the NNW (330 degrees) at 3 MPH (3 knots; 1.5 m/s)
Visibility: 1.55 miles (2.49 km)
Ceiling: 2000 feet AGL
Clouds: few clouds at 100 feet AGL
scattered clouds at 600 feet AGL
broken clouds at 2000 feet AGL
Weather: SHRA BR  (rain showers, mist)

METAR text: RJOW 190307Z 30007KT 4000 R11/0800VP2000U SHRA BR FEW001 SCT010 BKN020 12/12 Q1012 RMK 2ST001 4CU010 5CU020 A2990
Conditions at: RJOW (IWAMI , JP) observed 0307 UTC 19 February 2019
Temperature: 12.0°C (54°F)
Dewpoint: 12.0°C (54°F) [RH = 100%]
Pressure (altimeter): 29.88 inches Hg (1012.0 mb)
Winds: from the WNW (300 degrees) at 8 MPH (7 knots; 3.6 m/s)
Visibility: 2.49 miles (4.01 km)
Ceiling: 2000 feet AGL
Clouds: few clouds at 100 feet AGL
scattered clouds at 1000 feet AGL
broken clouds at 2000 feet AGL
Weather: SHRA BR  (rain showers, mist)

METAR text: RJOW 190300Z 29008KT 4000 R11/0800V1800D SHRA BR FEW001 SCT010 BKN020 12/12 Q1012
Conditions at: RJOW (IWAMI , JP) observed 0300 UTC 19 February 2019
Temperature: 12.0°C (54°F)
Dewpoint: 12.0°C (54°F) [RH = 100%]
Pressure (altimeter): 29.88 inches Hg (1012.0 mb)
Winds: from the WNW (290 degrees) at 9 MPH (8 knots; 4.1 m/s)
Visibility: 2.49 miles (4.01 km)
Ceiling: 2000 feet AGL
Clouds: few clouds at 100 feet AGL
scattered clouds at 1000 feet AGL
broken clouds at 2000 feet AGL
Weather: SHRA BR  (rain showers, mist)

METAR text: RJOW 190200Z 09008KT 9999 R11/2000N -SHRA FEW001 SCT015 BKN030 11/10 Q1011
Conditions at: RJOW (IWAMI , JP) observed 0200 UTC 19 February 2019
Temperature: 11.0°C (52°F)
Dewpoint: 10.0°C (50°F) [RH = 94%]
Pressure (altimeter): 29.85 inches Hg (1011.0 mb)
Winds: from the E (90 degrees) at 9 MPH (8 knots; 4.1 m/s)
Visibility: 6 or more miles (10+ km)
Ceiling: 3000 feet AGL
Clouds: few clouds at 100 feet AGL
scattered clouds at 1500 feet AGL
broken clouds at 3000 feet AGL
Weather: -SHRA  (light rain showers)

METAR text: RJOW 190135Z 08005KT 010V160 7000 -SHRA FEW001 SCT010 BKN030 11/10 Q1012 RMK 2ST001 3CU010 5CU030 A2991
Conditions at: RJOW (IWAMI , JP) observed 0135 UTC 19 February 2019
Temperature: 11.0°C (52°F)
Dewpoint: 10.0°C (50°F) [RH = 94%]
Pressure (altimeter): 29.88 inches Hg (1012.0 mb)
Winds: from the E (80 degrees) at 6 MPH (5 knots; 2.6 m/s)
Visibility: 4 miles ( 7 km)
Ceiling: 3000 feet AGL
Clouds: few clouds at 100 feet AGL
scattered clouds at 1000 feet AGL
broken clouds at 3000 feet AGL
Weather: -SHRA  (light rain showers)

METAR text: RJOW 190113Z 04008KT 4000 -SHRA BR FEW000 SCT004 BKN010 10/10 Q1013 RMK 1ST000 3ST004 5CU010 A2993
Conditions at: RJOW (IWAMI , JP) observed 0113 UTC 19 February 2019
Temperature: 10.0°C (50°F)
Dewpoint: 10.0°C (50°F) [RH = 100%]
Pressure (altimeter): 29.91 inches Hg (1013.0 mb)
Winds: from the NE (40 degrees) at 9 MPH (8 knots; 4.1 m/s)
Visibility: 2.49 miles (4.01 km)
Ceiling: 1000 feet AGL
Clouds: few clouds at 0 feet AGL
scattered clouds at 400 feet AGL
broken clouds at 1000 feet AGL
Weather: -SHRA BR  (light rain showers, mist)

METAR text: RJOW 190100Z 06009KT 020V080 3000 SHRA BR FEW000 SCT015 BKN030 10/10 Q1013
Conditions at: RJOW (IWAMI , JP) observed 0100 UTC 19 February 2019
Temperature: 10.0°C (50°F)
Dewpoint: 10.0°C (50°F) [RH = 100%]
Pressure (altimeter): 29.91 inches Hg (1013.0 mb)
Winds: from the ENE (60 degrees) at 10 MPH (9 knots; 4.6 m/s)
Visibility: 1.86 miles (2.99 km)
Ceiling: 3000 feet AGL
Clouds: few clouds at 0 feet AGL
scattered clouds at 1500 feet AGL
broken clouds at 3000 feet AGL
Weather: SHRA BR  (rain showers, mist)

METAR text: RJOW 190042Z 05007KT 010V080 3000 R11/1000VP2000U SHRA BR FEW000 SCT015 BKN030 10/10 Q1014 RMK 1ST000 3CU015 5CU030 A2995
Conditions at: RJOW (IWAMI , JP) observed 0042 UTC 19 February 2019
Temperature: 10.0°C (50°F)
Dewpoint: 10.0°C (50°F) [RH = 100%]
Pressure (altimeter): 29.94 inches Hg (1014.0 mb)
Winds: from the NE (50 degrees) at 8 MPH (7 knots; 3.6 m/s)
Visibility: 1.86 miles (2.99 km)
Ceiling: 3000 feet AGL
Clouds: few clouds at 0 feet AGL
scattered clouds at 1500 feet AGL
broken clouds at 3000 feet AGL
Weather: SHRA BR  (rain showers, mist)

METAR text: RJOW 190032Z 04007KT 360V080 2000 R11/1000VP2000D +SHRA BR FEW002 SCT020 BKN040 10/10 Q1014 RMK 1ST002 4CU020 5CU040 A2996
Conditions at: RJOW (IWAMI , JP) observed 0032 UTC 19 February 2019
Temperature: 10.0°C (50°F)
Dewpoint: 10.0°C (50°F) [RH = 100%]
Pressure (altimeter): 29.94 inches Hg (1014.0 mb)
Winds: from the NE (40 degrees) at 8 MPH (7 knots; 3.6 m/s)
Visibility: 1.24 miles (2.00 km)
Ceiling: 4000 feet AGL
Clouds: few clouds at 200 feet AGL
scattered clouds at 2000 feet AGL
broken clouds at 4000 feet AGL
Weather: +SHRA BR  (heavy rain showers, mist)

METAR text: RJOW 190024Z 03008KT 350V060 4000 SHRA BR FEW002 SCT025 BKN050 10/10 Q1015 RMK 1ST002 3CU025 5SC050 A2997
Conditions at: RJOW (IWAMI , JP) observed 0024 UTC 19 February 2019
Temperature: 10.0°C (50°F)
Dewpoint: 10.0°C (50°F) [RH = 100%]
Pressure (altimeter): 29.97 inches Hg (1015.0 mb)
Winds: from the NNE (30 degrees) at 9 MPH (8 knots; 4.1 m/s)
Visibility: 2.49 miles (4.01 km)
Ceiling: 5000 feet AGL
Clouds: few clouds at 200 feet AGL
scattered clouds at 2500 feet AGL
broken clouds at 5000 feet AGL
Weather: SHRA BR  (rain showers, mist)

METAR text: RJOW 190013Z 04007KT 360V070 5000 RA BR FEW002 SCT040 BKN050 10/10 Q1015 RMK 1ST002 3SC040 7SC050 A2998
Conditions at: RJOW (IWAMI , JP) observed 0013 UTC 19 February 2019
Temperature: 10.0°C (50°F)
Dewpoint: 10.0°C (50°F) [RH = 100%]
Pressure (altimeter): 29.97 inches Hg (1015.0 mb)
Winds: from the NE (40 degrees) at 8 MPH (7 knots; 3.6 m/s)
Visibility: 3 miles ( 5 km)
Ceiling: 5000 feet AGL
Clouds: few clouds at 200 feet AGL
scattered clouds at 4000 feet AGL
broken clouds at 5000 feet AGL
Weather: RA BR  (moderate rain, mist)

METAR text: RJOW 190000Z 03006KT 360V070 8000 -RA FEW000 SCT045 BKN060 10/10 Q1015
Conditions at: RJOW (IWAMI , JP) observed 0000 UTC 19 February 2019
Temperature: 10.0°C (50°F)
Dewpoint: 10.0°C (50°F) [RH = 100%]
Pressure (altimeter): 29.97 inches Hg (1015.0 mb)
Winds: from the NNE (30 degrees) at 7 MPH (6 knots; 3.1 m/s)
Visibility: 5 miles ( 8 km)
Ceiling: 6000 feet AGL
Clouds: few clouds at 0 feet AGL
scattered clouds at 4500 feet AGL
broken clouds at 6000 feet AGL
Weather: -RA  (light rain)

METAR text: RJOW 182300Z 05003KT 020V080 8000 -RA BCFG BR FEW004 SCT040 BKN050 09/09 Q1016
Conditions at: RJOW (IWAMI , JP) observed 2300 UTC 18 February 2019
Temperature: 9.0°C (48°F)
Dewpoint: 9.0°C (48°F) [RH = 100%]
Pressure (altimeter): 30.00 inches Hg (1016.0 mb)
Winds: from the NE (50 degrees) at 3 MPH (3 knots; 1.5 m/s)
Visibility: 5 miles ( 8 km)
Ceiling: 5000 feet AGL
Clouds: few clouds at 400 feet AGL
scattered clouds at 4000 feet AGL
broken clouds at 5000 feet AGL
Weather: -RA BCFG BR  (light rain, patches of fog, mist)

METAR text: RJOW 181000Z 10003KT CAVOK 08/04 Q1024
Conditions at: RJOW (IWAMI , JP) observed 1000 UTC 18 February 2019
Temperature: 8.0°C (46°F)
Dewpoint: 4.0°C (39°F) [RH = 76%]
Pressure (altimeter): 30.24 inches Hg (1024.0 mb)
Winds: from the E (100 degrees) at 3 MPH (3 knots; 1.5 m/s)
Visibility: 6 or more miles (10+ km)
Ceiling: ceiling and visibility are OK
Clouds: unknown
Weather: no significant weather observed at this time

METAR text: RJOW 180900Z 08001KT CAVOK 10/02 Q1024
Conditions at: RJOW (IWAMI , JP) observed 0900 UTC 18 February 2019
Temperature: 10.0°C (50°F)
Dewpoint: 2.0°C (36°F) [RH = 57%]
Pressure (altimeter): 30.24 inches Hg (1024.0 mb)
Winds: from the E (80 degrees) at 1 MPH (1 knots; 0.5 m/s)
Visibility: 6 or more miles (10+ km)
Ceiling: ceiling and visibility are OK
Clouds: unknown
Weather: no significant weather observed at this time

METAR text: RJOW 180800Z VRB01KT CAVOK 10/02 Q1023
Conditions at: RJOW (IWAMI , JP) observed 0800 UTC 18 February 2019
Temperature: 10.0°C (50°F)
Dewpoint: 2.0°C (36°F) [RH = 57%]
Pressure (altimeter): 30.21 inches Hg (1023.0 mb)
Winds: variable direction winds at 1 MPH (1 knots; 0.5 m/s)
Visibility: 6 or more miles (10+ km)
Ceiling: ceiling and visibility are OK
Clouds: unknown
Weather: no significant weather observed at this time

METAR text: RJOW 180700Z VRB02KT CAVOK 10/01 Q1023
Conditions at: RJOW (IWAMI , JP) observed 0700 UTC 18 February 2019
Temperature: 10.0°C (50°F)
Dewpoint: 1.0°C (34°F) [RH = 53%]
Pressure (altimeter): 30.21 inches Hg (1023.0 mb)
Winds: variable direction winds at 2 MPH (2 knots; 1.0 m/s)
Visibility: 6 or more miles (10+ km)
Ceiling: ceiling and visibility are OK
Clouds: unknown
Weather: no significant weather observed at this time

METAR text: RJOW 180600Z 32003KT 270V020 CAVOK 10/02 Q1023
Conditions at: RJOW (IWAMI , JP) observed 0600 UTC 18 February 2019
Temperature: 10.0°C (50°F)
Dewpoint: 2.0°C (36°F) [RH = 57%]
Pressure (altimeter): 30.21 inches Hg (1023.0 mb)
Winds: from the NW (320 degrees) at 3 MPH (3 knots; 1.5 m/s)
Visibility: 6 or more miles (10+ km)
Ceiling: ceiling and visibility are OK
Clouds: unknown
Weather: no significant weather observed at this time

METAR text: RJOW 180500Z 31006KT CAVOK 11/02 Q1024
Conditions at: RJOW (IWAMI , JP) observed 0500 UTC 18 February 2019
Temperature: 11.0°C (52°F)
Dewpoint: 2.0°C (36°F) [RH = 54%]
Pressure (altimeter): 30.24 inches Hg (1024.0 mb)
Winds: from the NW (310 degrees) at 7 MPH (6 knots; 3.1 m/s)
Visibility: 6 or more miles (10+ km)
Ceiling: ceiling and visibility are OK
Clouds: unknown
Weather: no significant weather observed at this time

METAR text: RJOW 180400Z 31006KT 290V360 9999 FEW035 BKN/// 11/01 Q1024
Conditions at: RJOW (IWAMI , JP) observed 0400 UTC 18 February 2019
Temperature: 11.0°C (52°F)
Dewpoint: 1.0°C (34°F) [RH = 50%]
Pressure (altimeter): 30.24 inches Hg (1024.0 mb)
Winds: from the NW (310 degrees) at 7 MPH (6 knots; 3.1 m/s)
Visibility: 6 or more miles (10+ km)
Ceiling: at least 12,000 feet AGL
Clouds: few clouds at 3500 feet AGL
Weather: no significant weather observed at this time

METAR text: RJOW 180300Z VRB02KT 9999 FEW030 BKN/// 11/M01 Q1025
Conditions at: RJOW (IWAMI , JP) observed 0300 UTC 18 February 2019
Temperature: 11.0°C (52°F)
Dewpoint: -1.0°C (30°F) [RH = 43%]
Pressure (altimeter): 30.27 inches Hg (1025.0 mb)
Winds: variable direction winds at 2 MPH (2 knots; 1.0 m/s)
Visibility: 6 or more miles (10+ km)
Ceiling: at least 12,000 feet AGL
Clouds: few clouds at 3000 feet AGL
Weather: no significant weather observed at this time

METAR text: RJOW 180200Z 14006KT 120V180 9999 FEW025 BKN/// 09/M01 Q1025
Conditions at: RJOW (IWAMI , JP) observed 0200 UTC 18 February 2019
Temperature: 9.0°C (48°F)
Dewpoint: -1.0°C (30°F) [RH = 49%]
Pressure (altimeter): 30.27 inches Hg (1025.0 mb)
Winds: from the SE (140 degrees) at 7 MPH (6 knots; 3.1 m/s)
Visibility: 6 or more miles (10+ km)
Ceiling: at least 12,000 feet AGL
Clouds: few clouds at 2500 feet AGL
Weather: no significant weather observed at this time

METAR text: RJOW 180100Z 16007KT CAVOK 06/M01 Q1025
Conditions at: RJOW (IWAMI , JP) observed 0100 UTC 18 February 2019
Temperature: 6.0°C (43°F)
Dewpoint: -1.0°C (30°F) [RH = 61%]
Pressure (altimeter): 30.27 inches Hg (1025.0 mb)
Winds: from the SSE (160 degrees) at 8 MPH (7 knots; 3.6 m/s)
Visibility: 6 or more miles (10+ km)
Ceiling: ceiling and visibility are OK
Clouds: unknown
Weather: no significant weather observed at this time

METAR text: RJOW 180000Z 16008KT 9999 FEW050 BKN/// 04/M02 Q1025
Conditions at: RJOW (IWAMI , JP) observed 0000 UTC 18 February 2019
Temperature: 4.0°C (39°F)
Dewpoint: -2.0°C (28°F) [RH = 65%]
Pressure (altimeter): 30.27 inches Hg (1025.0 mb)
Winds: from the SSE (160 degrees) at 9 MPH (8 knots; 4.1 m/s)
Visibility: 6 or more miles (10+ km)
Ceiling: at least 12,000 feet AGL
Clouds: few clouds at 5000 feet AGL
Weather: no significant weather observed at this time

METAR text: RJOW 172300Z 17008KT 9999 FEW050 BKN/// 02/M02 Q1025
Conditions at: RJOW (IWAMI , JP) observed 2300 UTC 17 February 2019
Temperature: 2.0°C (36°F)
Dewpoint: -2.0°C (28°F) [RH = 75%]
Pressure (altimeter): 30.27 inches Hg (1025.0 mb)
Winds: from the S (170 degrees) at 9 MPH (8 knots; 4.1 m/s)
Visibility: 6 or more miles (10+ km)
Ceiling: at least 12,000 feet AGL
Clouds: few clouds at 5000 feet AGL
Weather: no significant weather observed at this time